sensor_id;sensor_type;location;lat;lon;timestamp;temperature;humidity
67358;HTU21D;54240;51.096;5.878;2023-06-14T00:01:01;20.63;-6.00
67358;HTU21D;54240;51.096;5.878;2023-06-14T00:03:29;20.59;-6.00
67358;HTU21D;54240;51.096;5.878;2023-06-14T00:05:57;20.55;-6.00
67358;HTU21D;54240;51.096;5.878;2023-06-14T00:08:23;20.48;-6.00
67358;HTU21D;54240;51.096;5.878;2023-06-14T00:10:51;20.43;-6.00
67358;HTU21D;54240;51.096;5.878;2023-06-14T00:13:17;20.35;-6.00
67358;HTU21D;54240;51.096;5.878;2023-06-14T00:15:43;20.28;-6.00
67358;HTU21D;54240;51.096;5.878;2023-06-14T00:18:09;20.21;-6.00
67358;HTU21D;54240;51.096;5.878;2023-06-14T00:20:37;20.16;-6.00
67358;HTU21D;54240;51.096;5.878;2023-06-14T00:23:03;20.12;-6.00
67358;HTU21D;54240;51.096;5.878;2023-06-14T00:25:29;20.14;-6.00
67358;HTU21D;54240;51.096;5.878;2023-06-14T00:27:56;20.09;-6.00
67358;HTU21D;54240;51.096;5.878;2023-06-14T00:30:22;20.07;-6.00
67358;HTU21D;54240;51.096;5.878;2023-06-14T00:32:48;20.02;-6.00
67358;HTU21D;54240;51.096;5.878;2023-06-14T00:35:16;19.95;-6.00
67358;HTU21D;54240;51.096;5.878;2023-06-14T00:37:42;19.85;-6.00
67358;HTU21D;54240;51.096;5.878;2023-06-14T00:40:08;19.79;-6.00
67358;HTU21D;54240;51.096;5.878;2023-06-14T00:42:34;19.73;-6.00
67358;HTU21D;54240;51.096;5.878;2023-06-14T00:45:00;19.69;-6.00
67358;HTU21D;54240;51.096;5.878;2023-06-14T00:47:26;19.66;-6.00
67358;HTU21D;54240;51.096;5.878;2023-06-14T00:49:53;19.59;-6.00
67358;HTU21D;54240;51.096;5.878;2023-06-14T00:52:20;19.55;-6.00
67358;HTU21D;54240;51.096;5.878;2023-06-14T00:54:46;19.51;-6.00
67358;HTU21D;54240;51.096;5.878;2023-06-14T00:57:12;19.47;-6.00
67358;HTU21D;54240;51.096;5.878;2023-06-14T00:59:45;19.43;-6.00
67358;HTU21D;54240;51.096;5.878;2023-06-14T01:02:12;19.40;-6.00
67358;HTU21D;54240;51.096;5.878;2023-06-14T01:04:43;19.37;-6.00
67358;HTU21D;54240;51.096;5.878;2023-06-14T01:15:44;19.22;-6.00
67358;HTU21D;54240;51.096;5.878;2023-06-14T01:18:10;19.20;-6.00
67358;HTU21D;54240;51.096;5.878;2023-06-14T01:20:47;19.13;-6.00
67358;HTU21D;54240;51.096;5.878;2023-06-14T01:23:17;19.08;-6.00
67358;HTU21D;54240;51.096;5.878;2023-06-14T01:25:43;19.03;-6.00
67358;HTU21D;54240;51.096;5.878;2023-06-14T01:28:12;18.98;-6.00
67358;HTU21D;54240;51.096;5.878;2023-06-14T01:30:42;18.95;-6.00
67358;HTU21D;54240;51.096;5.878;2023-06-14T01:33:17;18.93;-6.00
67358;HTU21D;54240;51.096;5.878;2023-06-14T01:35:46;18.89;-6.00
67358;HTU21D;54240;51.096;5.878;2023-06-14T01:38:17;18.87;-6.00
67358;HTU21D;54240;51.096;5.878;2023-06-14T01:40:47;18.84;-6.00
67358;HTU21D;54240;51.096;5.878;2023-06-14T01:43:15;18.84;-6.00
67358;HTU21D;54240;51.096;5.878;2023-06-14T01:45:42;18.81;-6.00
67358;HTU21D;54240;51.096;5.878;2023-06-14T01:48:09;18.78;-6.00
67358;HTU21D;54240;51.096;5.878;2023-06-14T01:50:35;18.71;-6.00
67358;HTU21D;54240;51.096;5.878;2023-06-14T01:53:06;18.67;-6.00
67358;HTU21D;54240;51.096;5.878;2023-06-14T01:55:36;18.63;-6.00
67358;HTU21D;54240;51.096;5.878;2023-06-14T01:58:06;18.57;-6.00
67358;HTU21D;54240;51.096;5.878;2023-06-14T02:00:40;18.54;-6.00
67358;HTU21D;54240;51.096;5.878;2023-06-14T02:03:06;18.52;-6.00
67358;HTU21D;54240;51.096;5.878;2023-06-14T02:05:32;18.50;-6.00
67358;HTU21D;54240;51.096;5.878;2023-06-14T02:07:58;18.46;-6.00
67358;HTU21D;54240;51.096;5.878;2023-06-14T02:10:23;18.41;-6.00
67358;HTU21D;54240;51.096;5.878;2023-06-14T02:12:50;18.37;-6.00
67358;HTU21D;54240;51.096;5.878;2023-06-14T02:15:16;18.35;-6.00
67358;HTU21D;54240;51.096;5.878;2023-06-14T02:17:48;18.32;-6.00
67358;HTU21D;54240;51.096;5.878;2023-06-14T02:20:17;18.27;-6.00
67358;HTU21D;54240;51.096;5.878;2023-06-14T02:22:44;18.23;-6.00
67358;HTU21D;54240;51.096;5.878;2023-06-14T02:25:11;18.17;-6.00
67358;HTU21D;54240;51.096;5.878;2023-06-14T02:27:40;18.13;-6.00
67358;HTU21D;54240;51.096;5.878;2023-06-14T02:30:06;18.08;-6.00
67358;HTU21D;54240;51.096;5.878;2023-06-14T02:32:33;18.04;-6.00
67358;HTU21D;54240;51.096;5.878;2023-06-14T02:35:02;17.99;-6.00
67358;HTU21D;54240;51.096;5.878;2023-06-14T02:37:30;17.95;-6.00
67358;HTU21D;54240;51.096;5.878;2023-06-14T02:39:56;17.91;-6.00
67358;HTU21D;54240;51.096;5.878;2023-06-14T02:42:23;17.89;-6.00
67358;HTU21D;54240;51.096;5.878;2023-06-14T02:44:49;17.89;-6.00
67358;HTU21D;54240;51.096;5.878;2023-06-14T02:47:17;17.85;-6.00
67358;HTU21D;54240;51.096;5.878;2023-06-14T02:49:44;17.84;-6.00
67358;HTU21D;54240;51.096;5.878;2023-06-14T02:52:14;17.84;-6.00
67358;HTU21D;54240;51.096;5.878;2023-06-14T02:54:40;17.81;-6.00
67358;HTU21D;54240;51.096;5.878;2023-06-14T02:57:06;17.78;-6.00
67358;HTU21D;54240;51.096;5.878;2023-06-14T02:59:36;17.76;-6.00
67358;HTU21D;54240;51.096;5.878;2023-06-14T03:02:04;17.75;-6.00
67358;HTU21D;54240;51.096;5.878;2023-06-14T03:04:31;17.72;-6.00
67358;HTU21D;54240;51.096;5.878;2023-06-14T03:07:06;17.68;-6.00
67358;HTU21D;54240;51.096;5.878;2023-06-14T03:09:36;17.67;-6.00
67358;HTU21D;54240;51.096;5.878;2023-06-14T03:12:04;17.63;-6.00
67358;HTU21D;54240;51.096;5.878;2023-06-14T03:14:32;17.62;-6.00
67358;HTU21D;54240;51.096;5.878;2023-06-14T03:16:59;17.60;-6.00
67358;HTU21D;54240;51.096;5.878;2023-06-14T03:19:27;17.56;-6.00
67358;HTU21D;54240;51.096;5.878;2023-06-14T03:21:54;17.52;-6.00
67358;HTU21D;54240;51.096;5.878;2023-06-14T03:24:25;17.50;-6.00
67358;HTU21D;54240;51.096;5.878;2023-06-14T03:26:54;17.47;-6.00
67358;HTU21D;54240;51.096;5.878;2023-06-14T03:29:21;17.45;-6.00
67358;HTU21D;54240;51.096;5.878;2023-06-14T03:32:02;17.43;-6.00
67358;HTU21D;54240;51.096;5.878;2023-06-14T03:34:39;17.41;-6.00
67358;HTU21D;54240;51.096;5.878;2023-06-14T03:37:07;17.41;-6.00
67358;HTU21D;54240;51.096;5.878;2023-06-14T03:39:34;17.39;-6.00
67358;HTU21D;54240;51.096;5.878;2023-06-14T03:42:00;17.37;-6.00
67358;HTU21D;54240;51.096;5.878;2023-06-14T03:44:26;17.36;-6.00
67358;HTU21D;54240;51.096;5.878;2023-06-14T03:46:52;17.35;-6.00
67358;HTU21D;54240;51.096;5.878;2023-06-14T03:49:18;17.36;-6.00
67358;HTU21D;54240;51.096;5.878;2023-06-14T03:51:45;17.33;-6.00
67358;HTU21D;54240;51.096;5.878;2023-06-14T03:54:18;17.33;-6.00
67358;HTU21D;54240;51.096;5.878;2023-06-14T03:56:45;17.34;-6.00
67358;HTU21D;54240;51.096;5.878;2023-06-14T03:59:12;17.33;-6.00
67358;HTU21D;54240;51.096;5.878;2023-06-14T04:01:37;17.31;-6.00
67358;HTU21D;54240;51.096;5.878;2023-06-14T04:04:03;17.30;-6.00
67358;HTU21D;54240;51.096;5.878;2023-06-14T04:06:29;17.30;-6.00
67358;HTU21D;54240;51.096;5.878;2023-06-14T04:09:00;17.33;-6.00
67358;HTU21D;54240;51.096;5.878;2023-06-14T04:11:29;17.36;-6.00
67358;HTU21D;54240;51.096;5.878;2023-06-14T04:13:58;17.37;-6.00
67358;HTU21D;54240;51.096;5.878;2023-06-14T04:16:26;17.41;-6.00
67358;HTU21D;54240;51.096;5.878;2023-06-14T04:18:54;17.45;-6.00
67358;HTU21D;54240;51.096;5.878;2023-06-14T04:21:21;17.43;-6.00
67358;HTU21D;54240;51.096;5.878;2023-06-14T04:23:51;17.43;-6.00
67358;HTU21D;54240;51.096;5.878;2023-06-14T04:26:22;17.46;-6.00
67358;HTU21D;54240;51.096;5.878;2023-06-14T04:28:50;17.45;-6.00
67358;HTU21D;54240;51.096;5.878;2023-06-14T04:31:17;17.47;-6.00
67358;HTU21D;54240;51.096;5.878;2023-06-14T04:33:45;17.52;-6.00
67358;HTU21D;54240;51.096;5.878;2023-06-14T04:36:16;17.56;-6.00
67358;HTU21D;54240;51.096;5.878;2023-06-14T04:38:46;17.60;-6.00
67358;HTU21D;54240;51.096;5.878;2023-06-14T04:41:12;17.61;-6.00
67358;HTU21D;54240;51.096;5.878;2023-06-14T04:43:40;17.66;-6.00
67358;HTU21D;54240;51.096;5.878;2023-06-14T04:46:08;17.74;-6.00
67358;HTU21D;54240;51.096;5.878;2023-06-14T04:48:40;17.79;-6.00
67358;HTU21D;54240;51.096;5.878;2023-06-14T04:51:07;17.78;-6.00
67358;HTU21D;54240;51.096;5.878;2023-06-14T04:53:34;17.82;-6.00
67358;HTU21D;54240;51.096;5.878;2023-06-14T04:56:01;17.88;-6.00
67358;HTU21D;54240;51.096;5.878;2023-06-14T04:58:29;17.94;-6.00
67358;HTU21D;54240;51.096;5.878;2023-06-14T05:00:56;17.99;-6.00
67358;HTU21D;54240;51.096;5.878;2023-06-14T05:03:23;17.98;-6.00
67358;HTU21D;54240;51.096;5.878;2023-06-14T05:05:50;18.05;-6.00
67358;HTU21D;54240;51.096;5.878;2023-06-14T05:08:16;18.08;-6.00
67358;HTU21D;54240;51.096;5.878;2023-06-14T05:10:43;18.12;-6.00
67358;HTU21D;54240;51.096;5.878;2023-06-14T05:13:09;18.20;-6.00
67358;HTU21D;54240;51.096;5.878;2023-06-14T05:15:36;18.26;-6.00
67358;HTU21D;54240;51.096;5.878;2023-06-14T05:18:02;18.28;-6.00
67358;HTU21D;54240;51.096;5.878;2023-06-14T05:20:28;18.34;-6.00
67358;HTU21D;54240;51.096;5.878;2023-06-14T05:22:54;18.39;-6.00
67358;HTU21D;54240;51.096;5.878;2023-06-14T05:25:20;18.54;-6.00
67358;HTU21D;54240;51.096;5.878;2023-06-14T05:27:47;18.62;-6.00
67358;HTU21D;54240;51.096;5.878;2023-06-14T05:30:14;18.62;-6.00
67358;HTU21D;54240;51.096;5.878;2023-06-14T05:32:40;18.63;-6.00
67358;HTU21D;54240;51.096;5.878;2023-06-14T05:35:06;18.65;-6.00
67358;HTU21D;54240;51.096;5.878;2023-06-14T05:37:32;18.64;-6.00
67358;HTU21D;54240;51.096;5.878;2023-06-14T05:39:58;18.65;-6.00
67358;HTU21D;54240;51.096;5.878;2023-06-14T05:42:24;18.76;-6.00
67358;HTU21D;54240;51.096;5.878;2023-06-14T05:44:49;18.80;-6.00
67358;HTU21D;54240;51.096;5.878;2023-06-14T05:47:16;18.88;-6.00
67358;HTU21D;54240;51.096;5.878;2023-06-14T05:49:42;19.02;-6.00
67358;HTU21D;54240;51.096;5.878;2023-06-14T05:52:08;19.18;-6.00
67358;HTU21D;54240;51.096;5.878;2023-06-14T05:54:34;19.33;-6.00
67358;HTU21D;54240;51.096;5.878;2023-06-14T05:57:00;19.46;-6.00
67358;HTU21D;54240;51.096;5.878;2023-06-14T05:59:27;19.70;-6.00
67358;HTU21D;54240;51.096;5.878;2023-06-14T06:01:53;19.60;-6.00
67358;HTU21D;54240;51.096;5.878;2023-06-14T06:04:19;19.70;-6.00
67358;HTU21D;54240;51.096;5.878;2023-06-14T06:06:45;19.84;-6.00
67358;HTU21D;54240;51.096;5.878;2023-06-14T06:09:13;20.10;-6.00
67358;HTU21D;54240;51.096;5.878;2023-06-14T06:11:40;20.22;-6.00
67358;HTU21D;54240;51.096;5.878;2023-06-14T06:14:06;20.36;-6.00
67358;HTU21D;54240;51.096;5.878;2023-06-14T06:16:32;20.48;-6.00
67358;HTU21D;54240;51.096;5.878;2023-06-14T06:18:59;20.61;-6.00
67358;HTU21D;54240;51.096;5.878;2023-06-14T06:21:25;20.71;-6.00
67358;HTU21D;54240;51.096;5.878;2023-06-14T06:23:51;20.80;-6.00
67358;HTU21D;54240;51.096;5.878;2023-06-14T06:26:17;20.90;-6.00
67358;HTU21D;54240;51.096;5.878;2023-06-14T06:28:43;20.98;-6.00
67358;HTU21D;54240;51.096;5.878;2023-06-14T06:31:09;21.05;-6.00
67358;HTU21D;54240;51.096;5.878;2023-06-14T06:33:37;21.21;-6.00
67358;HTU21D;54240;51.096;5.878;2023-06-14T06:36:05;21.22;-6.00
67358;HTU21D;54240;51.096;5.878;2023-06-14T06:38:31;21.33;-6.00
67358;HTU21D;54240;51.096;5.878;2023-06-14T06:40:57;21.47;-6.00
67358;HTU21D;54240;51.096;5.878;2023-06-14T06:43:23;21.60;-6.00
67358;HTU21D;54240;51.096;5.878;2023-06-14T06:45:49;21.72;-6.00
67358;HTU21D;54240;51.096;5.878;2023-06-14T06:48:19;21.81;-6.00
67358;HTU21D;54240;51.096;5.878;2023-06-14T06:50:45;21.91;-6.00
67358;HTU21D;54240;51.096;5.878;2023-06-14T06:53:11;21.90;-6.00
67358;HTU21D;54240;51.096;5.878;2023-06-14T06:55:37;22.05;-6.00
67358;HTU21D;54240;51.096;5.878;2023-06-14T06:58:03;22.11;-6.00
67358;HTU21D;54240;51.096;5.878;2023-06-14T07:00:31;22.24;-6.00
67358;HTU21D;54240;51.096;5.878;2023-06-14T07:02:56;22.38;-5.03
67358;HTU21D;54240;51.096;5.878;2023-06-14T07:05:23;22.50;-6.00
67358;HTU21D;54240;51.096;5.878;2023-06-14T07:07:50;22.63;-6.00
67358;HTU21D;54240;51.096;5.878;2023-06-14T07:10:16;22.62;-6.00
67358;HTU21D;54240;51.096;5.878;2023-06-14T07:12:42;22.72;-6.00
67358;HTU21D;54240;51.096;5.878;2023-06-14T07:15:08;22.69;-6.00
67358;HTU21D;54240;51.096;5.878;2023-06-14T07:17:37;22.72;-6.00
67358;HTU21D;54240;51.096;5.878;2023-06-14T07:20:04;22.88;-6.00
67358;HTU21D;54240;51.096;5.878;2023-06-14T07:22:40;22.90;-6.00
67358;HTU21D;54240;51.096;5.878;2023-06-14T07:25:10;22.99;-6.00
67358;HTU21D;54240;51.096;5.878;2023-06-14T07:27:40;23.13;-6.00
67358;HTU21D;54240;51.096;5.878;2023-06-14T07:30:07;23.14;-6.00
67358;HTU21D;54240;51.096;5.878;2023-06-14T07:32:33;23.14;-6.00
67358;HTU21D;54240;51.096;5.878;2023-06-14T07:35:00;23.24;-6.00
67358;HTU21D;54240;51.096;5.878;2023-06-14T07:37:26;23.27;-6.00
67358;HTU21D;54240;51.096;5.878;2023-06-14T07:39:51;23.45;-6.00
67358;HTU21D;54240;51.096;5.878;2023-06-14T07:42:18;23.65;-6.00
67358;HTU21D;54240;51.096;5.878;2023-06-14T07:44:43;23.82;-6.00
67358;HTU21D;54240;51.096;5.878;2023-06-14T07:47:10;23.85;-6.00
67358;HTU21D;54240;51.096;5.878;2023-06-14T07:49:36;24.04;-6.00
67358;HTU21D;54240;51.096;5.878;2023-06-14T07:52:03;24.15;-6.00
67358;HTU21D;54240;51.096;5.878;2023-06-14T07:54:30;24.28;-6.00
67358;HTU21D;54240;51.096;5.878;2023-06-14T07:56:58;24.44;-6.00
67358;HTU21D;54240;51.096;5.878;2023-06-14T07:59:26;24.55;-6.00
67358;HTU21D;54240;51.096;5.878;2023-06-14T08:01:52;24.75;-6.00
67358;HTU21D;54240;51.096;5.878;2023-06-14T08:04:18;24.95;-6.00
67358;HTU21D;54240;51.096;5.878;2023-06-14T08:06:44;25.05;-6.00
67358;HTU21D;54240;51.096;5.878;2023-06-14T08:09:12;25.37;-6.00
67358;HTU21D;54240;51.096;5.878;2023-06-14T08:11:38;25.73;-6.00
67358;HTU21D;54240;51.096;5.878;2023-06-14T08:14:04;26.22;-6.00
67358;HTU21D;54240;51.096;5.878;2023-06-14T08:16:30;26.80;-6.00
67358;HTU21D;54240;51.096;5.878;2023-06-14T08:18:56;27.32;-6.00
67358;HTU21D;54240;51.096;5.878;2023-06-14T08:21:22;27.40;-6.00
67358;HTU21D;54240;51.096;5.878;2023-06-14T08:23:48;27.32;-6.00
67358;HTU21D;54240;51.096;5.878;2023-06-14T08:26:14;27.53;-6.00
67358;HTU21D;54240;51.096;5.878;2023-06-14T08:28:40;27.52;-6.00
67358;HTU21D;54240;51.096;5.878;2023-06-14T08:31:08;27.75;-6.00
67358;HTU21D;54240;51.096;5.878;2023-06-14T08:33:34;28.12;-6.00
67358;HTU21D;54240;51.096;5.878;2023-06-14T08:36:00;28.20;-6.00
67358;HTU21D;54240;51.096;5.878;2023-06-14T08:38:27;28.15;-6.00
67358;HTU21D;54240;51.096;5.878;2023-06-14T08:40:57;28.28;-6.00
67358;HTU21D;54240;51.096;5.878;2023-06-14T08:43:23;0.00;0.00
67358;HTU21D;54240;51.096;5.878;2023-06-14T08:45:54;28.82;-6.00
67358;HTU21D;54240;51.096;5.878;2023-06-14T08:48:26;29.06;-6.00
67358;HTU21D;54240;51.096;5.878;2023-06-14T08:50:55;29.22;-6.00
67358;HTU21D;54240;51.096;5.878;2023-06-14T08:53:35;29.67;-6.00
67358;HTU21D;54240;51.096;5.878;2023-06-14T08:56:03;29.91;-6.00
67358;HTU21D;54240;51.096;5.878;2023-06-14T08:58:33;30.02;-6.00
67358;HTU21D;54240;51.096;5.878;2023-06-14T09:01:01;29.89;-6.00
67358;HTU21D;54240;51.096;5.878;2023-06-14T09:03:27;29.78;-6.00
67358;HTU21D;54240;51.096;5.878;2023-06-14T09:05:57;29.92;-6.00
67358;HTU21D;54240;51.096;5.878;2023-06-14T09:08:26;30.38;-6.00
67358;HTU21D;54240;51.096;5.878;2023-06-14T09:10:56;30.78;-6.00
67358;HTU21D;54240;51.096;5.878;2023-06-14T09:13:23;31.21;-6.00
67358;HTU21D;54240;51.096;5.878;2023-06-14T09:15:50;31.19;-6.00
67358;HTU21D;54240;51.096;5.878;2023-06-14T09:18:16;30.85;-6.00
67358;HTU21D;54240;51.096;5.878;2023-06-14T09:20:43;31.14;-6.00
67358;HTU21D;54240;51.096;5.878;2023-06-14T09:23:09;31.57;-6.00
67358;HTU21D;54240;51.096;5.878;2023-06-14T09:25:43;31.73;-6.00
67358;HTU21D;54240;51.096;5.878;2023-06-14T09:28:09;31.00;-6.00
67358;HTU21D;54240;51.096;5.878;2023-06-14T09:30:39;30.69;-6.00
67358;HTU21D;54240;51.096;5.878;2023-06-14T09:33:05;30.21;-6.00
67358;HTU21D;54240;51.096;5.878;2023-06-14T09:35:34;29.86;-6.00
67358;HTU21D;54240;51.096;5.878;2023-06-14T09:38:00;30.03;-6.00
67358;HTU21D;54240;51.096;5.878;2023-06-14T09:40:27;30.15;-6.00
67358;HTU21D;54240;51.096;5.878;2023-06-14T09:42:53;30.78;-6.00
67358;HTU21D;54240;51.096;5.878;2023-06-14T09:45:20;31.07;-6.00
67358;HTU21D;54240;51.096;5.878;2023-06-14T09:47:49;31.16;-6.00
67358;HTU21D;54240;51.096;5.878;2023-06-14T09:50:15;31.39;-6.00
67358;HTU21D;54240;51.096;5.878;2023-06-14T09:52:43;31.51;-6.00
67358;HTU21D;54240;51.096;5.878;2023-06-14T09:55:14;30.54;-6.00
67358;HTU21D;54240;51.096;5.878;2023-06-14T09:57:42;29.36;-6.00
67358;HTU21D;54240;51.096;5.878;2023-06-14T10:00:10;29.20;-6.00
67358;HTU21D;54240;51.096;5.878;2023-06-14T10:02:40;28.40;-6.00
67358;HTU21D;54240;51.096;5.878;2023-06-14T10:05:09;27.67;-6.00
67358;HTU21D;54240;51.096;5.878;2023-06-14T10:07:51;28.31;-6.00
67358;HTU21D;54240;51.096;5.878;2023-06-14T10:10:18;28.37;-6.00
67358;HTU21D;54240;51.096;5.878;2023-06-14T10:12:45;28.18;-6.00
67358;HTU21D;54240;51.096;5.878;2023-06-14T10:15:32;27.76;-6.00
67358;HTU21D;54240;51.096;5.878;2023-06-14T10:18:14;28.63;-6.00
67358;HTU21D;54240;51.096;5.878;2023-06-14T10:23:29;28.56;-6.00
67358;HTU21D;54240;51.096;5.878;2023-06-14T10:25:57;28.70;-6.00
67358;HTU21D;54240;51.096;5.878;2023-06-14T10:28:23;29.06;-6.00
67358;HTU21D;54240;51.096;5.878;2023-06-14T10:31:11;28.73;-6.00
67358;HTU21D;54240;51.096;5.878;2023-06-14T10:33:49;29.44;-6.00
67358;HTU21D;54240;51.096;5.878;2023-06-14T10:39:15;31.45;-6.00
67358;HTU21D;54240;51.096;5.878;2023-06-14T10:41:52;32.12;-6.00
67358;HTU21D;54240;51.096;5.878;2023-06-14T10:47:09;32.85;-6.00
67358;HTU21D;54240;51.096;5.878;2023-06-14T10:49:48;33.40;-6.00
67358;HTU21D;54240;51.096;5.878;2023-06-14T10:52:16;33.55;-6.00
67358;HTU21D;54240;51.096;5.878;2023-06-14T10:57:33;31.75;-6.00
67358;HTU21D;54240;51.096;5.878;2023-06-14T11:00:00;31.22;-6.00
67358;HTU21D;54240;51.096;5.878;2023-06-14T11:08:51;32.10;-6.00
67358;HTU21D;54240;51.096;5.878;2023-06-14T11:11:22;31.20;-6.00
67358;HTU21D;54240;51.096;5.878;2023-06-14T11:13:51;29.79;-6.00
67358;HTU21D;54240;51.096;5.878;2023-06-14T11:16:18;30.84;-6.00
67358;HTU21D;54240;51.096;5.878;2023-06-14T11:18:45;32.29;-6.00
67358;HTU21D;54240;51.096;5.878;2023-06-14T11:21:11;32.41;-6.00
67358;HTU21D;54240;51.096;5.878;2023-06-14T11:23:40;32.81;-6.00
67358;HTU21D;54240;51.096;5.878;2023-06-14T11:26:06;32.35;-6.00
67358;HTU21D;54240;51.096;5.878;2023-06-14T11:28:40;31.94;-6.00
67358;HTU21D;54240;51.096;5.878;2023-06-14T11:31:07;32.58;-6.00
67358;HTU21D;54240;51.096;5.878;2023-06-14T11:33:34;33.03;-6.00
67358;HTU21D;54240;51.096;5.878;2023-06-14T11:36:03;32.50;-6.00
67358;HTU21D;54240;51.096;5.878;2023-06-14T11:38:30;32.28;-6.00
67358;HTU21D;54240;51.096;5.878;2023-06-14T11:41:00;31.79;-6.00
67358;HTU21D;54240;51.096;5.878;2023-06-14T11:43:26;31.22;-6.00
67358;HTU21D;54240;51.096;5.878;2023-06-14T11:45:53;30.00;-6.00
67358;HTU21D;54240;51.096;5.878;2023-06-14T11:48:19;29.32;-6.00
67358;HTU21D;54240;51.096;5.878;2023-06-14T11:50:50;29.39;-6.00
67358;HTU21D;54240;51.096;5.878;2023-06-14T11:53:18;28.83;-6.00
67358;HTU21D;54240;51.096;5.878;2023-06-14T11:55:44;28.72;-6.00
67358;HTU21D;54240;51.096;5.878;2023-06-14T11:58:13;28.11;-6.00
67358;HTU21D;54240;51.096;5.878;2023-06-14T12:00:39;28.87;-6.00
67358;HTU21D;54240;51.096;5.878;2023-06-14T12:03:06;28.93;-6.00
67358;HTU21D;54240;51.096;5.878;2023-06-14T12:05:33;28.65;-6.00
67358;HTU21D;54240;51.096;5.878;2023-06-14T12:08:02;28.54;-6.00
67358;HTU21D;54240;51.096;5.878;2023-06-14T12:10:29;28.11;-6.00
67358;HTU21D;54240;51.096;5.878;2023-06-14T12:12:59;28.05;-6.00
67358;HTU21D;54240;51.096;5.878;2023-06-14T12:15:28;28.67;-6.00
67358;HTU21D;54240;51.096;5.878;2023-06-14T12:17:58;28.44;-6.00
67358;HTU21D;54240;51.096;5.878;2023-06-14T12:20:29;28.61;-6.00
67358;HTU21D;54240;51.096;5.878;2023-06-14T12:22:57;28.62;-6.00
67358;HTU21D;54240;51.096;5.878;2023-06-14T12:25:34;28.67;-6.00
67358;HTU21D;54240;51.096;5.878;2023-06-14T12:28:08;28.84;-6.00
67358;HTU21D;54240;51.096;5.878;2023-06-14T12:30:36;29.26;-6.00
67358;HTU21D;54240;51.096;5.878;2023-06-14T12:33:03;29.47;-6.00
67358;HTU21D;54240;51.096;5.878;2023-06-14T12:35:29;29.91;-6.00
67358;HTU21D;54240;51.096;5.878;2023-06-14T12:37:55;30.06;-6.00
67358;HTU21D;54240;51.096;5.878;2023-06-14T12:40:22;29.49;-6.00
67358;HTU21D;54240;51.096;5.878;2023-06-14T12:42:48;29.05;-6.00
67358;HTU21D;54240;51.096;5.878;2023-06-14T12:45:18;28.48;-6.00
67358;HTU21D;54240;51.096;5.878;2023-06-14T12:47:44;28.82;-6.00
67358;HTU21D;54240;51.096;5.878;2023-06-14T12:50:10;28.95;-6.00
67358;HTU21D;54240;51.096;5.878;2023-06-14T12:52:36;28.63;-6.00
67358;HTU21D;54240;51.096;5.878;2023-06-14T12:55:05;28.15;-6.00
67358;HTU21D;54240;51.096;5.878;2023-06-14T12:57:31;28.26;-6.00
67358;HTU21D;54240;51.096;5.878;2023-06-14T12:59:57;28.70;-6.00
67358;HTU21D;54240;51.096;5.878;2023-06-14T13:02:23;28.56;-6.00
67358;HTU21D;54240;51.096;5.878;2023-06-14T13:04:50;28.65;-6.00
67358;HTU21D;54240;51.096;5.878;2023-06-14T13:07:16;28.98;-6.00
67358;HTU21D;54240;51.096;5.878;2023-06-14T13:09:43;28.77;-6.00
67358;HTU21D;54240;51.096;5.878;2023-06-14T13:12:12;29.18;-6.00
67358;HTU21D;54240;51.096;5.878;2023-06-14T13:14:39;29.52;-6.00
67358;HTU21D;54240;51.096;5.878;2023-06-14T13:17:09;29.91;-6.00
67358;HTU21D;54240;51.096;5.878;2023-06-14T13:19:36;29.95;-6.00
67358;HTU21D;54240;51.096;5.878;2023-06-14T13:22:02;29.75;-6.00
67358;HTU21D;54240;51.096;5.878;2023-06-14T13:24:29;29.18;-6.00
67358;HTU21D;54240;51.096;5.878;2023-06-14T13:26:56;28.27;-6.00
67358;HTU21D;54240;51.096;5.878;2023-06-14T13:29:23;27.85;-6.00
67358;HTU21D;54240;51.096;5.878;2023-06-14T13:31:51;28.57;-6.00
67358;HTU21D;54240;51.096;5.878;2023-06-14T13:34:16;28.69;-6.00
67358;HTU21D;54240;51.096;5.878;2023-06-14T13:36:43;28.56;-6.00
67358;HTU21D;54240;51.096;5.878;2023-06-14T13:39:09;28.95;-6.00
67358;HTU21D;54240;51.096;5.878;2023-06-14T13:41:36;28.61;-6.00
67358;HTU21D;54240;51.096;5.878;2023-06-14T13:44:02;28.79;-6.00
67358;HTU21D;54240;51.096;5.878;2023-06-14T13:46:31;29.04;-6.00
67358;HTU21D;54240;51.096;5.878;2023-06-14T13:48:58;29.61;-6.00
67358;HTU21D;54240;51.096;5.878;2023-06-14T13:51:25;29.78;-6.00
67358;HTU21D;54240;51.096;5.878;2023-06-14T13:53:53;29.52;-6.00
67358;HTU21D;54240;51.096;5.878;2023-06-14T13:56:21;29.46;-6.00
67358;HTU21D;54240;51.096;5.878;2023-06-14T13:58:50;29.42;-6.00
67358;HTU21D;54240;51.096;5.878;2023-06-14T14:01:16;28.75;-6.00
67358;HTU21D;54240;51.096;5.878;2023-06-14T14:03:43;28.58;-6.00
67358;HTU21D;54240;51.096;5.878;2023-06-14T14:06:11;28.92;-6.00
67358;HTU21D;54240;51.096;5.878;2023-06-14T14:08:37;28.89;-6.00
67358;HTU21D;54240;51.096;5.878;2023-06-14T14:11:05;29.14;-6.00
67358;HTU21D;54240;51.096;5.878;2023-06-14T14:13:31;29.46;-6.00
67358;HTU21D;54240;51.096;5.878;2023-06-14T14:15:57;29.75;-6.00
67358;HTU21D;54240;51.096;5.878;2023-06-14T14:18:24;29.86;-6.00
67358;HTU21D;54240;51.096;5.878;2023-06-14T14:20:51;30.17;-6.00
67358;HTU21D;54240;51.096;5.878;2023-06-14T14:23:16;30.33;-6.00
67358;HTU21D;54240;51.096;5.878;2023-06-14T14:25:42;30.38;-6.00
67358;HTU21D;54240;51.096;5.878;2023-06-14T14:28:09;29.77;-6.00
67358;HTU21D;54240;51.096;5.878;2023-06-14T14:30:35;29.78;-6.00
67358;HTU21D;54240;51.096;5.878;2023-06-14T14:33:05;29.68;-6.00
67358;HTU21D;54240;51.096;5.878;2023-06-14T14:35:32;29.92;-6.00
67358;HTU21D;54240;51.096;5.878;2023-06-14T14:37:58;30.06;-6.00
67358;HTU21D;54240;51.096;5.878;2023-06-14T14:40:24;30.12;-6.00
67358;HTU21D;54240;51.096;5.878;2023-06-14T14:42:50;29.89;-6.00
67358;HTU21D;54240;51.096;5.878;2023-06-14T14:45:16;29.89;-6.00
67358;HTU21D;54240;51.096;5.878;2023-06-14T14:47:42;30.16;-6.00
67358;HTU21D;54240;51.096;5.878;2023-06-14T14:50:08;30.41;-6.00
67358;HTU21D;54240;51.096;5.878;2023-06-14T14:52:35;30.77;-6.00
67358;HTU21D;54240;51.096;5.878;2023-06-14T14:55:01;30.17;-6.00
67358;HTU21D;54240;51.096;5.878;2023-06-14T14:57:27;29.75;-6.00
67358;HTU21D;54240;51.096;5.878;2023-06-14T14:59:55;29.82;-6.00
67358;HTU21D;54240;51.096;5.878;2023-06-14T15:02:21;29.49;-6.00
67358;HTU21D;54240;51.096;5.878;2023-06-14T15:04:49;29.08;-6.00
67358;HTU21D;54240;51.096;5.878;2023-06-14T15:07:15;28.95;-6.00
67358;HTU21D;54240;51.096;5.878;2023-06-14T15:09:41;28.88;-6.00
67358;HTU21D;54240;51.096;5.878;2023-06-14T15:12:08;28.47;-6.00
67358;HTU21D;54240;51.096;5.878;2023-06-14T15:14:34;28.70;-6.00
67358;HTU21D;54240;51.096;5.878;2023-06-14T15:17:00;28.87;-6.00
67358;HTU21D;54240;51.096;5.878;2023-06-14T15:19:27;28.80;-6.00
67358;HTU21D;54240;51.096;5.878;2023-06-14T15:21:53;28.90;-6.00
67358;HTU21D;54240;51.096;5.878;2023-06-14T15:24:19;28.67;-6.00
67358;HTU21D;54240;51.096;5.878;2023-06-14T15:26:45;28.91;-6.00
67358;HTU21D;54240;51.096;5.878;2023-06-14T15:29:11;29.34;-6.00
67358;HTU21D;54240;51.096;5.878;2023-06-14T15:31:37;29.70;-6.00
67358;HTU21D;54240;51.096;5.878;2023-06-14T15:34:03;29.87;-6.00
67358;HTU21D;54240;51.096;5.878;2023-06-14T15:36:29;29.59;-6.00
67358;HTU21D;54240;51.096;5.878;2023-06-14T15:38:55;29.21;-6.00
67358;HTU21D;54240;51.096;5.878;2023-06-14T15:41:21;29.04;-6.00
67358;HTU21D;54240;51.096;5.878;2023-06-14T15:43:48;28.76;-6.00